Time;durP1;ratioP1;P1;durP2;ratioP2;P2;SDS_P1;SDS_P2;PMS_P1;PMS_P2;Temp;Humidity;BMP_temperature;BMP_pressure;BME280_temperature;BME280_humidity;BME280_pressure;Samples;Min_cycle;Max_cycle;Signal;HPM_P1;HPM_P2
2023/04/08 00:01:21;;;;;;;;;;;;;;;;;;6217751;23;19919;-88
2023/04/08 00:03:48;;;;;;;;;;;;;;;;;;6192366;23;20347;-89
2023/04/08 00:06:15;;;;;;;;;;;;;;;;;;6217922;23;19930;-88
2023/04/08 00:08:44;;;;;;;;;;;;;;;;;;6194082;23;19919;-89
2023/04/08 00:11:11;;;;;;;;;;;;;;;;;;6217493;23;19929;-88
2023/04/08 00:13:40;;;;;;;;;;;;;;;;;;6192078;23;19930;-90
2023/04/08 00:16:07;;;;;;;;;;;;;;;;;;6192136;23;20258;-90
2023/04/08 00:18:34;;;;;;;;;;;;;;;;;;6192735;23;19935;-89
2023/04/08 00:21:03;;;;;;;;;;;;;;;;;;6217005;23;19927;-89
2023/04/08 00:23:30;;;;;;;;;;;;;;;;;;6253889;23;19919;-89
2023/04/08 00:25:57;;;;;;;;;;;;;;;;;;6217372;23;19920;-89
2023/04/08 00:28:24;;;;;;;;;;;;;;;;;;6244436;23;19942;-89
2023/04/08 00:30:56;;;;;;;;;;;;;;;;;;6217401;23;19923;-89
2023/04/08 00:33:24;;;;;;;;;;;;;;;;;;6191650;23;19920;-89
2023/04/08 00:35:53;;;;;;;;;;;;;;;;;;6192059;23;20390;-89
2023/04/08 00:38:20;;;;;;;;;;;;;;;;;;6217481;23;19920;-90
2023/04/08 00:40:47;;;;;;;;;;;;;;;;;;6218152;23;19920;-89
2023/04/08 00:43:19;;;;;;;;;;;;;;;;;;6192501;23;19943;-90
2023/04/08 00:45:46;;;;;;;;;;;;;;;;;;6192269;23;19923;-89
2023/04/08 00:48:17;;;;;;;;;;;;;;;;;;6192250;23;20107;-89
2023/04/08 00:50:46;;;;;;;;;;;;;;;;;;6192404;23;20262;-90
2023/04/08 00:53:13;;;;;;;;;;;;;;;;;;6191156;23;19920;-88
2023/04/08 00:55:40;;;;;;;;;;;;;;;;;;6192483;23;19927;-88
2023/04/08 00:58:07;;;;;;;;;;;;;;;;;;6217876;23;19927;-88
2023/04/08 01:00:36;;;;;;;;;;;;;;;;;;6192108;23;19923;-89
2023/04/08 01:03:05;;;;;;;;;;;;;;;;;;6191418;23;19927;-89
2023/04/08 01:05:37;;;;;;;;;;;;;;;;;;6243760;23;19927;-88
2023/04/08 01:08:05;;;;;;;;;;;;;;;;;;6221144;23;19919;-88
2023/04/08 01:10:35;;;;;;;;;;;;;;;;;;6217397;23;19923;-89
2023/04/08 01:13:07;;;;;;;;;;;;;;;;;;6226917;23;20343;-89
2023/04/08 01:15:34;;;;;;;;;;;;;;;;;;6217302;23;19920;-89
2023/04/08 01:18:01;;;;;;;;;;;;;;;;;;6221825;23;19942;-89
2023/04/08 01:20:31;;;;;;;;;;;;;;;;;;6256247;23;19919;-89
2023/04/08 01:23:02;;;;;;;;;;;;;;;;;;6192951;23;19920;-89
2023/04/08 01:25:30;;;;;;;;;;;;;;;;;;6194585;23;19926;-88
2023/04/08 01:28:04;;;;;;;;;;;;;;;;;;6223090;23;19942;-89
2023/04/08 01:30:33;;;;;;;;;;;;;;;;;;6219209;23;19920;-90
2023/04/08 01:33:00;;;;;;;;;;;;;;;;;;6218517;23;19926;-88
2023/04/08 01:35:27;;;;;;;;;;;;;;;;;;6219393;23;20263;-89
2023/04/08 01:37:55;;;;;;;;;;;;;;;;;;6193798;23;19920;-90
2023/04/08 01:40:22;;;;;;;;;;;;;;;;;;6219080;23;19919;-88
2023/04/08 01:42:49;;;;;;;;;;;;;;;;;;6218079;23;20366;-89
2023/04/08 01:45:18;;;;;;;;;;;;;;;;;;6219220;23;19947;-89
2023/04/08 01:47:46;;;;;;;;;;;;;;;;;;6193807;23;20323;-89
2023/04/08 01:50:13;;;;;;;;;;;;;;;;;;6218375;23;19920;-89
2023/04/08 01:52:40;;;;;;;;;;;;;;;;;;6255610;23;20339;-89
2023/04/08 01:55:07;;;;;;;;;;;;;;;;;;6218444;23;19930;-89
2023/04/08 01:57:35;;;;;;;;;;;;;;;;;;6245852;23;19923;-90
2023/04/08 02:00:03;;;;;;;;;;;;;;;;;;6193011;23;19920;-90
2023/04/08 02:02:48;;;;;;;;;;;;;;;;;;6218770;23;19920;-90
2023/04/08 02:05:15;;;;;;;;;;;;;;;;;;6218754;23;19920;-88
2023/04/08 02:07:44;;;;;;;;;;;;;;;;;;6224056;23;19923;-88
2023/04/08 02:10:11;;;;;;;;;;;;;;;;;;6218769;23;19920;-88
2023/04/08 02:12:39;;;;;;;;;;;;;;;;;;6245498;23;19930;-89
2023/04/08 02:15:13;;;;;;;;;;;;;;;;;;6194502;23;19920;-88
2023/04/08 02:17:42;;;;;;;;;;;;;;;;;;6193475;23;20366;-89
2023/04/08 02:20:11;;;;;;;;;;;;;;;;;;6194012;23;19920;-89
2023/04/08 02:22:39;;;;;;;;;;;;;;;;;;6217777;23;19919;-90
2023/04/08 02:25:08;;;;;;;;;;;;;;;;;;6229149;23;19927;-89
2023/04/08 02:27:35;;;;;;;;;;;;;;;;;;6218761;23;19920;-89
2023/04/08 02:30:05;;;;;;;;;;;;;;;;;;6219251;23;19927;-89
2023/04/08 02:32:34;;;;;;;;;;;;;;;;;;6192681;23;20373;-89
2023/04/08 02:35:02;;;;;;;;;;;;;;;;;;6218853;23;19923;-89
2023/04/08 02:37:31;;;;;;;;;;;;;;;;;;6192820;23;19935;-89
2023/04/08 02:39:58;;;;;;;;;;;;;;;;;;6219360;23;19920;-88
2023/04/08 02:42:28;;;;;;;;;;;;;;;;;;6218715;23;19924;-89
2023/04/08 02:44:55;;;;;;;;;;;;;;;;;;6218114;23;19942;-89
2023/04/08 02:47:24;;;;;;;;;;;;;;;;;;6217955;23;19926;-89
2023/04/08 02:49:54;;;;;;;;;;;;;;;;;;6219199;23;19919;-88
2023/04/08 02:52:21;;;;;;;;;;;;;;;;;;6218197;23;20359;-89
2023/04/08 02:54:49;;;;;;;;;;;;;;;;;;6227843;23;20335;-89
2023/04/08 02:57:18;;;;;;;;;;;;;;;;;;6251497;23;19927;-88
2023/04/08 02:59:45;;;;;;;;;;;;;;;;;;6245462;23;19926;-89
2023/04/08 03:02:14;;;;;;;;;;;;;;;;;;6245068;23;19927;-88
2023/04/08 03:04:41;;;;;;;;;;;;;;;;;;6192691;23;19920;-88
2023/04/08 03:07:08;;;;;;;;;;;;;;;;;;6252465;23;19920;-89
2023/04/08 03:09:35;;;;;;;;;;;;;;;;;;6255429;23;19926;-89
2023/04/08 03:12:06;;;;;;;;;;;;;;;;;;6245059;23;19927;-88
2023/04/08 03:14:35;;;;;;;;;;;;;;;;;;6254867;23;20328;-88
2023/04/08 03:17:02;;;;;;;;;;;;;;;;;;6244883;23;19920;-88
2023/04/08 03:19:31;;;;;;;;;;;;;;;;;;6244807;23;19920;-89
2023/04/08 03:21:58;;;;;;;;;;;;;;;;;;6245324;23;19923;-89
2023/04/08 03:24:25;;;;;;;;;;;;;;;;;;6192958;23;19927;-88
2023/04/08 03:26:54;;;;;;;;;;;;;;;;;;6217524;23;19926;-89
2023/04/08 03:29:22;;;;;;;;;;;;;;;;;;6218048;23;19926;-89
2023/04/08 03:31:50;;;;;;;;;;;;;;;;;;6218364;23;19920;-89
2023/04/08 03:34:17;;;;;;;;;;;;;;;;;;6229018;23;20362;-89
2023/04/08 03:36:44;;;;;;;;;;;;;;;;;;6217356;23;19927;-89
2023/04/08 03:39:15;;;;;;;;;;;;;;;;;;6255294;23;19927;-89
2023/04/08 03:41:42;;;;;;;;;;;;;;;;;;6243195;23;19931;-89
2023/04/08 03:44:09;;;;;;;;;;;;;;;;;;6217909;23;19935;-90
2023/04/08 03:46:37;;;;;;;;;;;;;;;;;;6216880;23;19920;-89
2023/04/08 03:49:05;;;;;;;;;;;;;;;;;;6254803;23;19926;-89
2023/04/08 03:51:32;;;;;;;;;;;;;;;;;;6192506;23;19926;-89
2023/04/08 03:53:59;;;;;;;;;;;;;;;;;;6192782;23;20255;-89
2023/04/08 03:56:26;;;;;;;;;;;;;;;;;;6254879;23;19920;-89
2023/04/08 03:58:53;;;;;;;;;;;;;;;;;;6192357;23;19920;-89
2023/04/08 04:01:20;;;;;;;;;;;;;;;;;;6218239;23;19927;-89
2023/04/08 04:03:51;;;;;;;;;;;;;;;;;;6218431;23;19926;-88
2023/04/08 04:06:18;;;;;;;;;;;;;;;;;;6192696;23;19931;-89
2023/04/08 04:08:45;;;;;;;;;;;;;;;;;;6218355;23;19920;-89
2023/04/08 04:11:12;;;;;;;;;;;;;;;;;;6192812;23;19927;-89
2023/04/08 04:13:39;;;;;;;;;;;;;;;;;;6192561;23;19927;-89
2023/04/08 04:16:06;;;;;;;;;;;;;;;;;;6218371;23;19929;-89
2023/04/08 04:18:33;;;;;;;;;;;;;;;;;;6192227;23;19919;-89
2023/04/08 04:21:04;;;;;;;;;;;;;;;;;;6192622;23;19926;-89
2023/04/08 04:23:31;;;;;;;;;;;;;;;;;;6227206;23;19920;-89
2023/04/08 04:26:01;;;;;;;;;;;;;;;;;;6218352;23;19919;-88
2023/04/08 04:28:28;;;;;;;;;;;;;;;;;;6171571;23;20263;-89
2023/04/08 04:30:55;;;;;;;;;;;;;;;;;;6224823;23;19920;-89
2023/04/08 04:33:22;;;;;;;;;;;;;;;;;;6163331;23;19920;-89
2023/04/08 04:35:49;;;;;;;;;;;;;;;;;;6188683;23;19920;-89
2023/04/08 04:38:17;;;;;;;;;;;;;;;;;;6215149;23;19927;-90
2023/04/08 04:40:44;;;;;;;;;;;;;;;;;;6163156;23;19927;-89
2023/04/08 04:43:11;;;;;;;;;;;;;;;;;;6188041;23;19920;-89
2023/04/08 04:45:38;;;;;;;;;;;;;;;;;;6215416;23;19920;-90
2023/04/08 04:48:06;;;;;;;;;;;;;;;;;;6188803;23;19924;-89
2023/04/08 04:50:33;;;;;;;;;;;;;;;;;;6161835;23;20271;-90
2023/04/08 04:53:00;;;;;;;;;;;;;;;;;;6215196;23;19920;-89
2023/04/08 04:55:29;;;;;;;;;;;;;;;;;;6165956;23;19920;-89
2023/04/08 04:57:56;;;;;;;;;;;;;;;;;;6191059;23;19920;-89
2023/04/08 05:00:23;;;;;;;;;;;;;;;;;;6190272;23;19942;-89
2023/04/08 05:02:50;;;;;;;;;;;;;;;;;;6190321;23;19920;-89
2023/04/08 05:05:17;;;;;;;;;;;;;;;;;;6217619;23;19920;-89
2023/04/08 05:07:44;;;;;;;;;;;;;;;;;;6190973;23;19931;-88
2023/04/08 05:10:11;;;;;;;;;;;;;;;;;;6201966;23;19926;-89
2023/04/08 05:12:40;;;;;;;;;;;;;;;;;;6218128;23;19920;-89
2023/04/08 05:15:07;;;;;;;;;;;;;;;;;;6191524;23;19927;-89
2023/04/08 05:17:34;;;;;;;;;;;;;;;;;;6199019;23;19938;-88
2023/04/08 05:20:02;;;;;;;;;;;;;;;;;;6196996;23;19927;-89
2023/04/08 05:22:29;;;;;;;;;;;;;;;;;;6257597;23;20271;-89
2023/04/08 05:24:56;;;;;;;;;;;;;;;;;;6221328;23;19920;-89
2023/04/08 05:27:23;;;;;;;;;;;;;;;;;;6221823;23;19920;-89
2023/04/08 05:29:52;;;;;;;;;;;;;;;;;;6234378;23;19920;-89
2023/04/08 05:32:19;;;;;;;;;;;;;;;;;;6223587;23;19926;-88
2023/04/08 05:34:46;;;;;;;;;;;;;;;;;;6225329;23;19919;-89
2023/04/08 05:37:13;;;;;;;;;;;;;;;;;;6250578;23;19919;-88
2023/04/08 05:39:43;;;;;;;;;;;;;;;;;;6219200;23;20363;-90
2023/04/08 05:42:11;;;;;;;;;;;;;;;;;;6228355;23;19923;-90
2023/04/08 05:44:40;;;;;;;;;;;;;;;;;;6219588;23;19919;-88
2023/04/08 08:04:02;;;;;;;;;;;;;;;;;;6207342;23;19920;-91
2023/04/08 08:06:31;;;;;;;;;;;;;;;;;;6155971;23;19931;-90
2023/04/08 08:08:58;;;;;;;;;;;;;;;;;;6156582;23;19927;-91
2023/04/08 08:11:26;;;;;;;;;;;;;;;;;;6158048;23;19927;-91
2023/04/08 08:13:53;;;;;;;;;;;;;;;;;;6159101;23;19924;-93
2023/04/08 08:16:20;;;;;;;;;;;;;;;;;;6158183;23;19943;-92
2023/04/08 08:18:47;;;;;;;;;;;;;;;;;;6158339;23;19921;-91
2023/04/08 10:19:40;;;;;;;;;;;;;;;;;;6215057;23;19919;-92
2023/04/08 10:22:22;;;;;;;;;;;;;;;;;;6176574;23;19920;-95
2023/04/08 10:25:04;;;;;;;;;;;;;;;;;;6214762;23;19926;-91
2023/04/08 10:27:38;;;;;;;;;;;;;;;;;;6165107;23;19924;-82
2023/04/08 10:30:07;;;;;;;;;;;;;;;;;;6104613;23;19935;-83
2023/04/08 10:32:40;;;;;;;;;;;;;;;;;;6103825;23;19925;-83
2023/04/08 10:35:08;;;;;;;;;;;;;;;;;;6104870;23;19920;-83
2023/04/08 10:37:35;;;;;;;;;;;;;;;;;;6105076;23;20303;-83
2023/04/08 10:40:04;;;;;;;;;;;;;;;;;;6155667;23;19924;-83
2023/04/08 10:42:31;;;;;;;;;;;;;;;;;;6128974;23;20229;-83
2023/04/08 10:45:01;;;;;;;;;;;;;;;;;;6154906;23;20249;-83
2023/04/08 10:47:29;;;;;;;;;;;;;;;;;;6104761;23;20337;-82
2023/04/08 10:49:56;;;;;;;;;;;;;;;;;;6155161;23;19931;-83
2023/04/08 10:52:27;;;;;;;;;;;;;;;;;;6154710;23;19951;-82
2023/04/08 10:54:54;;;;;;;;;;;;;;;;;;6155130;23;19925;-82
2023/04/08 10:57:24;;;;;;;;;;;;;;;;;;6129029;23;20345;-82
2023/04/08 10:59:53;;;;;;;;;;;;;;;;;;6129218;23;19931;-84
2023/04/08 11:02:20;;;;;;;;;;;;;;;;;;6129101;23;19928;-85
2023/04/08 11:04:47;;;;;;;;;;;;;;;;;;6128381;23;19921;-85
2023/04/08 11:07:14;;;;;;;;;;;;;;;;;;6104261;23;19925;-84
2023/04/08 11:09:45;;;;;;;;;;;;;;;;;;6154909;23;20341;-84
2023/04/08 11:12:12;;;;;;;;;;;;;;;;;;6127228;23;19921;-85
2023/04/08 11:14:42;;;;;;;;;;;;;;;;;;6127935;23;19921;-85
2023/04/08 11:17:09;;;;;;;;;;;;;;;;;;6163421;23;19928;-85
2023/04/08 11:19:38;;;;;;;;;;;;;;;;;;6153361;23;19947;-84
2023/04/08 11:22:09;;;;;;;;;;;;;;;;;;6105034;23;19920;-85
2023/04/08 11:24:38;;;;;;;;;;;;;;;;;;6154864;23;19921;-84
2023/04/08 11:27:09;;;;;;;;;;;;;;;;;;6126028;23;19920;-84
2023/04/08 11:29:38;;;;;;;;;;;;;;;;;;6128463;23;19927;-84
2023/04/08 11:32:10;;;;;;;;;;;;;;;;;;6128812;23;19924;-84
2023/04/08 11:34:39;;;;;;;;;;;;;;;;;;6154937;23;19921;-84
2023/04/08 11:37:08;;;;;;;;;;;;;;;;;;6128017;23;20345;-84
2023/04/08 11:39:35;;;;;;;;;;;;;;;;;;6153989;23;19949;-85
2023/04/08 11:42:02;;;;;;;;;;;;;;;;;;6128945;23;19921;-84
2023/04/08 11:44:32;;;;;;;;;;;;;;;;;;6128970;23;19921;-84
2023/04/08 11:47:01;;;;;;;;;;;;;;;;;;6164944;23;19921;-83
2023/04/08 11:49:43;;;;;;;;;;;;;;;;;;6128163;23;19920;-85
2023/04/08 11:52:12;;;;;;;;;;;;;;;;;;6165589;23;19920;-84
2023/04/08 11:54:41;;;;;;;;;;;;;;;;;;6155590;23;19940;-83
2023/04/08 11:57:09;;;;;;;;;;;;;;;;;;6128788;23;19935;-84
2023/04/08 11:59:40;;;;;;;;;;;;;;;;;;6154276;23;19927;-83
2023/04/08 12:02:10;;;;;;;;;;;;;;;;;;6128608;23;19928;-83
2023/04/08 12:04:40;;;;;;;;;;;;;;;;;;6139491;23;19921;-83
2023/04/08 12:07:09;;;;;;;;;;;;;;;;;;6154466;23;19921;-84
2023/04/08 12:09:36;;;;;;;;;;;;;;;;;;6154854;23;19921;-85
2023/04/08 12:12:03;;;;;;;;;;;;;;;;;;6104776;23;19920;-86
2023/04/08 12:14:33;;;;;;;;;;;;;;;;;;6105754;23;19921;-86
2023/04/08 12:17:01;;;;;;;;;;;;;;;;;;6154588;23;20388;-85
2023/04/08 12:19:30;;;;;;;;;;;;;;;;;;6130212;23;19921;-84
2023/04/08 12:21:57;;;;;;;;;;;;;;;;;;6153522;23;19921;-84
2023/04/08 12:24:26;;;;;;;;;;;;;;;;;;6128702;23;19928;-86
2023/04/08 12:26:56;;;;;;;;;;;;;;;;;;6153541;23;19924;-85
2023/04/08 12:29:25;;;;;;;;;;;;;;;;;;6155467;23;19925;-84
2023/04/08 12:31:52;;;;;;;;;;;;;;;;;;6101226;23;20341;-84
2023/04/08 12:34:23;;;;;;;;;;;;;;;;;;6136535;23;20257;-84
2023/04/08 12:36:50;;;;;;;;;;;;;;;;;;6154566;23;19920;-84
2023/04/08 12:39:19;;;;;;;;;;;;;;;;;;6154721;23;19921;-84
2023/04/08 12:41:49;;;;;;;;;;;;;;;;;;6127917;23;19920;-84
2023/04/08 12:44:16;;;;;;;;;;;;;;;;;;6153769;23;20360;-85
2023/04/08 12:46:46;;;;;;;;;;;;;;;;;;6153175;23;19925;-84
2023/04/08 12:49:15;;;;;;;;;;;;;;;;;;6154621;23;19928;-84
2023/04/08 12:51:43;;;;;;;;;;;;;;;;;;6153032;23;19920;-84
2023/04/08 12:54:11;;;;;;;;;;;;;;;;;;6127277;23;19925;-84
2023/04/08 12:56:38;;;;;;;;;;;;;;;;;;6127776;23;19924;-85
2023/04/08 12:59:05;;;;;;;;;;;;;;;;;;6128456;23;19921;-84
2023/04/08 13:01:33;;;;;;;;;;;;;;;;;;6157219;23;19921;-84
2023/04/08 13:04:02;;;;;;;;;;;;;;;;;;6152853;23;19921;-85
2023/04/08 13:06:31;;;;;;;;;;;;;;;;;;6127705;23;19921;-83
2023/04/08 13:09:00;;;;;;;;;;;;;;;;;;6103096;23;20333;-84
2023/04/08 13:11:29;;;;;;;;;;;;;;;;;;6128321;23;19928;-84
2023/04/08 13:13:56;;;;;;;;;;;;;;;;;;6128808;23;19924;-84
2023/04/08 13:16:23;;;;;;;;;;;;;;;;;;6129916;23;19920;-84
2023/04/08 13:18:51;;;;;;;;;;;;;;;;;;6131053;23;19920;-81
2023/04/08 13:21:18;;;;;;;;;;;;;;;;;;6155429;23;20362;-84
2023/04/08 13:23:45;;;;;;;;;;;;;;;;;;6139088;23;19921;-85
2023/04/08 13:26:18;;;;;;;;;;;;;;;;;;6164619;23;19925;-85
2023/04/08 13:28:45;;;;;;;;;;;;;;;;;;6157039;23;19921;-86
2023/04/08 13:31:12;;;;;;;;;;;;;;;;;;6157174;23;20364;-86
2023/04/08 13:33:39;;;;;;;;;;;;;;;;;;6156567;23;19921;-86
2023/04/08 13:36:06;;;;;;;;;;;;;;;;;;6137287;23;19916;-86
2023/04/08 13:38:33;;;;;;;;;;;;;;;;;;6159334;23;19924;-86
2023/04/08 13:41:03;;;;;;;;;;;;;;;;;;6183690;23;19952;-83
2023/04/08 13:43:36;;;;;;;;;;;;;;;;;;6183158;23;19970;-83
2023/04/08 13:46:03;;;;;;;;;;;;;;;;;;6160232;23;20244;-83
2023/04/08 13:48:30;;;;;;;;;;;;;;;;;;6129419;23;19921;-83
2023/04/08 13:50:57;;;;;;;;;;;;;;;;;;6166774;23;19921;-83
2023/04/08 13:53:24;;;;;;;;;;;;;;;;;;6156135;23;19927;-83
2023/04/08 13:55:56;;;;;;;;;;;;;;;;;;6155822;23;19921;-83
2023/04/08 13:58:23;;;;;;;;;;;;;;;;;;6153216;23;19921;-83
2023/04/08 14:00:53;;;;;;;;;;;;;;;;;;6159614;23;19928;-83
2023/04/08 14:03:21;;;;;;;;;;;;;;;;;;6157004;23;20336;-84
2023/04/08 14:05:51;;;;;;;;;;;;;;;;;;6130344;23;19921;-83
2023/04/08 14:08:23;;;;;;;;;;;;;;;;;;6154403;23;19927;-83
2023/04/08 14:10:50;;;;;;;;;;;;;;;;;;6169104;23;19921;-83
2023/04/08 14:13:17;;;;;;;;;;;;;;;;;;6132852;23;19927;-82
2023/04/08 14:15:48;;;;;;;;;;;;;;;;;;6134148;23;19924;-83
2023/04/08 14:18:17;;;;;;;;;;;;;;;;;;6156525;23;19925;-83
2023/04/08 14:20:44;;;;;;;;;;;;;;;;;;6131274;23;19921;-84
2023/04/08 14:23:12;;;;;;;;;;;;;;;;;;6132255;23;19920;-82
2023/04/08 14:25:39;;;;;;;;;;;;;;;;;;6133700;23;19920;-83
2023/04/08 14:28:08;;;;;;;;;;;;;;;;;;6132282;23;19931;-84
2023/04/08 14:30:36;;;;;;;;;;;;;;;;;;6134145;23;19927;-82
2023/04/08 14:33:04;;;;;;;;;;;;;;;;;;6146281;23;20340;-85
2023/04/08 14:35:32;;;;;;;;;;;;;;;;;;6137367;23;19955;-84
2023/04/08 14:38:01;;;;;;;;;;;;;;;;;;6133304;23;19931;-83
2023/04/08 14:40:30;;;;;;;;;;;;;;;;;;6159004;23;19969;-85
2023/04/08 14:42:58;;;;;;;;;;;;;;;;;;6159430;23;19920;-83
2023/04/08 14:45:27;;;;;;;;;;;;;;;;;;6161269;23;19924;-85
2023/04/08 14:47:56;;;;;;;;;;;;;;;;;;6162141;23;19921;-85
2023/04/08 14:50:26;;;;;;;;;;;;;;;;;;6108524;23;19920;-85
2023/04/08 14:52:57;;;;;;;;;;;;;;;;;;6160086;23;19932;-85
2023/04/08 14:55:27;;;;;;;;;;;;;;;;;;6132515;23;19920;-84
2023/04/08 14:57:54;;;;;;;;;;;;;;;;;;6157974;23;19920;-85
2023/04/08 15:00:21;;;;;;;;;;;;;;;;;;6156782;23;19927;-84
2023/04/08 15:02:48;;;;;;;;;;;;;;;;;;6157156;23;20364;-84
2023/04/08 15:05:15;;;;;;;;;;;;;;;;;;6158461;23;19921;-85
2023/04/08 15:07:45;;;;;;;;;;;;;;;;;;6156568;23;19928;-85
2023/04/08 15:10:14;;;;;;;;;;;;;;;;;;6156926;23;19969;-84
2023/04/08 15:12:41;;;;;;;;;;;;;;;;;;6105308;23;19921;-84
2023/04/08 15:15:08;;;;;;;;;;;;;;;;;;6156239;23;19928;-84
2023/04/08 15:17:36;;;;;;;;;;;;;;;;;;6130856;23;19928;-84
2023/04/08 15:20:03;;;;;;;;;;;;;;;;;;6155440;23;20268;-85
2023/04/08 15:22:30;;;;;;;;;;;;;;;;;;6129200;23;19947;-85
2023/04/08 15:24:59;;;;;;;;;;;;;;;;;;6154761;23;19927;-84
2023/04/08 15:27:28;;;;;;;;;;;;;;;;;;6153499;23;19921;-85
2023/04/08 15:29:55;;;;;;;;;;;;;;;;;;6129888;23;20332;-84
2023/04/08 15:32:22;;;;;;;;;;;;;;;;;;6128121;23;19921;-85
2023/04/08 15:34:50;;;;;;;;;;;;;;;;;;6154714;23;19920;-85
2023/04/08 15:37:19;;;;;;;;;;;;;;;;;;6154877;23;19921;-84
2023/04/08 15:39:46;;;;;;;;;;;;;;;;;;6128835;23;19920;-85
2023/04/08 15:42:13;;;;;;;;;;;;;;;;;;6153003;23;19925;-84
2023/04/08 15:44:46;;;;;;;;;;;;;;;;;;6104212;23;20386;-85
2023/04/08 15:47:13;;;;;;;;;;;;;;;;;;6104895;23;20341;-85
2023/04/08 15:49:42;;;;;;;;;;;;;;;;;;6104674;23;19928;-85
2023/04/08 15:52:09;;;;;;;;;;;;;;;;;;6154545;23;20281;-86
2023/04/08 15:54:36;;;;;;;;;;;;;;;;;;6153770;23;19927;-85
2023/04/08 15:57:05;;;;;;;;;;;;;;;;;;6128305;23;19925;-85
2023/04/08 15:59:33;;;;;;;;;;;;;;;;;;6128553;23;19928;-85
2023/04/08 16:02:03;;;;;;;;;;;;;;;;;;6154772;23;19924;-85
2023/04/08 16:04:30;;;;;;;;;;;;;;;;;;6153816;23;19928;-85
2023/04/08 16:06:57;;;;;;;;;;;;;;;;;;6155208;23;19925;-85
2023/04/08 16:09:25;;;;;;;;;;;;;;;;;;6129041;23;20326;-84
2023/04/08 16:11:55;;;;;;;;;;;;;;;;;;6154410;23;19921;-85
2023/04/08 16:14:22;;;;;;;;;;;;;;;;;;6128403;23;19924;-85
2023/04/08 16:16:52;;;;;;;;;;;;;;;;;;6128669;23;19921;-85
2023/04/08 16:19:20;;;;;;;;;;;;;;;;;;6128749;23;19921;-85
2023/04/08 16:21:47;;;;;;;;;;;;;;;;;;6128269;23;19973;-85
2023/04/08 16:24:19;;;;;;;;;;;;;;;;;;6128206;23;19924;-85
2023/04/08 16:26:46;;;;;;;;;;;;;;;;;;6127723;23;19928;-85
2023/04/08 16:53:19;;;;;;;;;;;;;;;;;;6214977;23;19923;-89
2023/04/08 16:55:46;;;;;;;;;;;;;;;;;;6188139;23;19923;-89
2023/04/08 16:58:15;;;;;;;;;;;;;;;;;;6214960;23;20245;-88
2023/04/08 17:00:42;;;;;;;;;;;;;;;;;;6226897;23;20243;-90
2023/04/08 17:03:09;;;;;;;;;;;;;;;;;;6189517;23;19924;-89
2023/04/08 17:05:37;;;;;;;;;;;;;;;;;;6188364;23;19924;-90
2023/04/08 17:08:04;;;;;;;;;;;;;;;;;;6188840;23;19920;-89
2023/04/08 17:10:32;;;;;;;;;;;;;;;;;;6189139;23;19919;-88
2023/04/08 17:12:59;;;;;;;;;;;;;;;;;;6226530;23;19920;-89
2023/04/08 17:15:27;;;;;;;;;;;;;;;;;;6214543;23;19920;-89
2023/04/08 17:17:54;;;;;;;;;;;;;;;;;;6164181;23;20362;-89
2023/04/08 17:20:23;;;;;;;;;;;;;;;;;;6224699;23;19927;-89
2023/04/08 17:22:53;;;;;;;;;;;;;;;;;;6188929;23;19920;-87
2023/04/08 17:25:20;;;;;;;;;;;;;;;;;;6214606;23;19920;-87
2023/04/08 17:27:48;;;;;;;;;;;;;;;;;;6187617;23;20264;-88
2023/04/08 17:30:17;;;;;;;;;;;;;;;;;;6224051;23;19920;-88
2023/04/08 17:32:44;;;;;;;;;;;;;;;;;;6215678;23;19920;-88
2023/04/08 17:35:12;;;;;;;;;;;;;;;;;;6215991;23;20279;-88
2023/04/08 17:37:39;;;;;;;;;;;;;;;;;;6216283;23;19927;-87
2023/04/08 17:40:09;;;;;;;;;;;;;;;;;;6188411;23;19931;-88
2023/04/08 17:42:36;;;;;;;;;;;;;;;;;;6164374;23;20267;-88
2023/04/08 17:45:05;;;;;;;;;;;;;;;;;;6163786;23;20330;-88
2023/04/08 17:47:32;;;;;;;;;;;;;;;;;;6188804;23;19927;-88
2023/04/08 17:49:59;;;;;;;;;;;;;;;;;;6215228;23;19927;-87
2023/04/08 17:52:26;;;;;;;;;;;;;;;;;;6163437;23;19920;-87
2023/04/08 17:54:53;;;;;;;;;;;;;;;;;;6164636;23;19927;-87
2023/04/08 17:57:23;;;;;;;;;;;;;;;;;;6214846;23;19934;-88
2023/04/08 17:59:52;;;;;;;;;;;;;;;;;;6214219;23;19928;-88
2023/04/08 18:02:21;;;;;;;;;;;;;;;;;;6187324;23;19927;-88
2023/04/08 18:04:50;;;;;;;;;;;;;;;;;;6225760;23;19943;-87
2023/04/08 18:07:19;;;;;;;;;;;;;;;;;;6189298;23;19920;-88
2023/04/08 18:09:47;;;;;;;;;;;;;;;;;;6214522;23;19967;-88
2023/04/08 18:12:14;;;;;;;;;;;;;;;;;;6188028;23;19927;-88
2023/04/08 18:14:41;;;;;;;;;;;;;;;;;;6188405;23;19926;-87
2023/04/08 18:17:08;;;;;;;;;;;;;;;;;;6215290;23;19920;-87
2023/04/08 18:19:39;;;;;;;;;;;;;;;;;;6189129;23;19920;-88
2023/04/08 18:22:06;;;;;;;;;;;;;;;;;;6188237;23;20119;-88
2023/04/08 18:24:33;;;;;;;;;;;;;;;;;;6188683;23;20260;-88
2023/04/08 18:27:00;;;;;;;;;;;;;;;;;;6189390;23;19920;-88
2023/04/08 18:29:29;;;;;;;;;;;;;;;;;;6215920;23;19920;-87
2023/04/08 18:31:56;;;;;;;;;;;;;;;;;;6229321;23;20339;-87
2023/04/08 18:34:24;;;;;;;;;;;;;;;;;;6227595;23;19920;-87
2023/04/08 18:36:52;;;;;;;;;;;;;;;;;;6176187;23;19920;-87
2023/04/08 18:39:19;;;;;;;;;;;;;;;;;;6218485;23;19920;-87
2023/04/08 18:41:48;;;;;;;;;;;;;;;;;;6198293;23;19920;-87
2023/04/08 18:44:18;;;;;;;;;;;;;;;;;;6186816;23;19923;-88
2023/04/08 18:46:45;;;;;;;;;;;;;;;;;;6213993;23;19920;-90
2023/04/08 18:49:12;;;;;;;;;;;;;;;;;;6163439;23;19923;-86
2023/04/08 18:51:43;;;;;;;;;;;;;;;;;;6214713;23;19943;-86
2023/04/08 18:54:12;;;;;;;;;;;;;;;;;;6214132;23;19924;-87
2023/04/08 18:56:43;;;;;;;;;;;;;;;;;;6223183;23;19920;-86
2023/04/08 18:59:12;;;;;;;;;;;;;;;;;;6188953;23;20256;-88
2023/04/08 19:01:39;;;;;;;;;;;;;;;;;;6214773;23;19919;-87
2023/04/08 19:04:09;;;;;;;;;;;;;;;;;;6214006;23;19927;-87
2023/04/08 19:06:36;;;;;;;;;;;;;;;;;;6162424;23;19927;-87
2023/04/08 19:09:03;;;;;;;;;;;;;;;;;;6163301;23;20259;-87
2023/04/08 19:11:31;;;;;;;;;;;;;;;;;;6215244;23;19927;-87
2023/04/08 19:13:58;;;;;;;;;;;;;;;;;;6187842;23;20362;-87
2023/04/08 19:16:30;;;;;;;;;;;;;;;;;;6187039;23;19927;-88
2023/04/08 19:18:57;;;;;;;;;;;;;;;;;;6214452;23;20597;-87
2023/04/08 19:21:24;;;;;;;;;;;;;;;;;;6188424;23;19920;-87
2023/04/08 19:23:56;;;;;;;;;;;;;;;;;;6224508;23;19930;-87
2023/04/08 19:26:23;;;;;;;;;;;;;;;;;;6187619;23;20339;-87
2023/04/08 19:28:55;;;;;;;;;;;;;;;;;;6187354;23;19920;-88
2023/04/08 19:31:22;;;;;;;;;;;;;;;;;;6215007;23;19928;-87
2023/04/08 19:33:49;;;;;;;;;;;;;;;;;;6214512;23;19927;-89
2023/04/08 19:36:20;;;;;;;;;;;;;;;;;;6213703;23;20344;-87
2023/04/08 19:38:47;;;;;;;;;;;;;;;;;;6187714;23;19943;-88
2023/04/08 19:41:14;;;;;;;;;;;;;;;;;;6187982;23;19924;-87
2023/04/08 19:43:41;;;;;;;;;;;;;;;;;;6188227;23;19927;-88
2023/04/08 19:46:09;;;;;;;;;;;;;;;;;;6214209;23;20340;-88
2023/04/08 19:48:36;;;;;;;;;;;;;;;;;;6187441;23;19947;-87
2023/04/08 19:51:03;;;;;;;;;;;;;;;;;;6214454;23;19927;-87
2023/04/08 19:53:30;;;;;;;;;;;;;;;;;;6162653;23;19943;-88
2023/04/08 19:56:01;;;;;;;;;;;;;;;;;;6214330;23;19920;-87
2023/04/08 19:58:28;;;;;;;;;;;;;;;;;;6162467;23;20255;-87
2023/04/08 20:00:55;;;;;;;;;;;;;;;;;;6187367;23;19943;-88
2023/04/08 20:03:26;;;;;;;;;;;;;;;;;;6187637;23;19927;-87
2023/04/08 20:05:53;;;;;;;;;;;;;;;;;;6224066;23;19930;-87
2023/04/08 20:08:20;;;;;;;;;;;;;;;;;;6214197;23;19920;-88
2023/04/08 20:10:49;;;;;;;;;;;;;;;;;;6186941;23;19920;-89
2023/04/08 20:13:16;;;;;;;;;;;;;;;;;;6214506;23;19920;-86
2023/04/08 20:15:44;;;;;;;;;;;;;;;;;;6186196;23;19935;-88
2023/04/08 20:18:11;;;;;;;;;;;;;;;;;;6187669;23;19920;-87
2023/04/08 20:20:40;;;;;;;;;;;;;;;;;;6162324;23;20367;-88
2023/04/08 20:23:09;;;;;;;;;;;;;;;;;;6161823;23;19968;-88
2023/04/08 20:25:38;;;;;;;;;;;;;;;;;;6223874;23;19920;-88
2023/04/08 20:28:05;;;;;;;;;;;;;;;;;;6214615;23;19924;-87
2023/04/08 20:30:32;;;;;;;;;;;;;;;;;;6213871;23;19931;-88
2023/04/08 20:32:59;;;;;;;;;;;;;;;;;;6187043;23;20364;-87
2023/04/08 20:35:29;;;;;;;;;;;;;;;;;;6187238;23;20367;-87
2023/04/08 20:37:58;;;;;;;;;;;;;;;;;;6214579;23;19920;-87
2023/04/08 20:40:25;;;;;;;;;;;;;;;;;;6186920;23;19919;-87
2023/04/08 20:42:52;;;;;;;;;;;;;;;;;;6186777;23;19924;-87
2023/04/08 20:45:22;;;;;;;;;;;;;;;;;;6213875;23;19927;-87
2023/04/08 20:47:52;;;;;;;;;;;;;;;;;;6213523;23;19924;-88
2023/04/08 20:50:19;;;;;;;;;;;;;;;;;;6187320;23;19926;-87
2023/04/08 20:52:49;;;;;;;;;;;;;;;;;;6185728;23;20225;-87
2023/04/08 20:55:17;;;;;;;;;;;;;;;;;;6187698;23;19926;-87
2023/04/08 20:57:46;;;;;;;;;;;;;;;;;;6186950;23;19920;-88
2023/04/08 21:00:14;;;;;;;;;;;;;;;;;;6188259;23;19919;-87
2023/04/08 21:02:42;;;;;;;;;;;;;;;;;;6213790;23;19920;-87
2023/04/08 21:05:12;;;;;;;;;;;;;;;;;;6213927;23;19928;-87
2023/04/08 21:07:43;;;;;;;;;;;;;;;;;;6214095;23;19927;-88
2023/04/08 21:10:10;;;;;;;;;;;;;;;;;;6223712;23;19927;-87
2023/04/08 21:12:41;;;;;;;;;;;;;;;;;;6186932;23;19926;-87
2023/04/08 21:15:08;;;;;;;;;;;;;;;;;;6162441;23;19919;-88
2023/04/08 21:17:38;;;;;;;;;;;;;;;;;;6214214;23;20228;-87
2023/04/08 21:20:06;;;;;;;;;;;;;;;;;;6186787;23;20344;-87
2023/04/08 21:22:33;;;;;;;;;;;;;;;;;;6214582;23;19920;-87
2023/04/08 21:25:00;;;;;;;;;;;;;;;;;;6187334;23;19927;-88
2023/04/08 21:27:29;;;;;;;;;;;;;;;;;;6187265;23;19920;-87
2023/04/08 21:29:57;;;;;;;;;;;;;;;;;;6213979;23;19920;-87
2023/04/08 21:32:25;;;;;;;;;;;;;;;;;;6214114;23;19919;-87